Time;durP1;ratioP1;P1;durP2;ratioP2;P2;SDS_P1;SDS_P2;PMS_P1;PMS_P2;Temp;Humidity;BMP_temperature;BMP_pressure;BME280_temperature;BME280_humidity;BME280_pressure;Samples;Min_cycle;Max_cycle;Signal;HPM_P1;HPM_P2
2023/09/17 00:00:32;;;;;;;12.65;10.18;;;19.90;94.20;;;;;;4971193;28;20699;-72
2023/09/17 00:02:58;;;;;;;14.90;11.65;;;19.90;94.40;;;;;;4958817;28;20068;-76
2023/09/17 00:05:24;;;;;;;13.60;11.85;;;20.00;94.40;;;;;;4955541;28;20038;-73
2023/09/17 00:07:50;;;;;;;15.77;12.05;;;19.90;94.40;;;;;;4958267;28;20539;-74
2023/09/17 00:10:16;;;;;;;15.23;12.80;;;19.80;94.70;;;;;;4959267;28;20037;-73
2023/09/17 00:12:41;;;;;;;12.90;11.43;;;19.80;94.70;;;;;;4954301;27;20054;-74
2023/09/17 00:15:08;;;;;;;15.50;11.40;;;19.80;94.90;;;;;;4958991;28;20420;-74
2023/09/17 00:17:33;;;;;;;13.02;11.65;;;19.80;95.00;;;;;;4952122;28;20754;-75
2023/09/17 00:19:59;;;;;;;14.07;12.18;;;19.80;95.10;;;;;;4936504;28;20122;-73
2023/09/17 00:22:25;;;;;;;15.95;12.32;;;19.80;95.20;;;;;;4935122;28;20047;-73
2023/09/17 00:24:51;;;;;;;14.98;13.05;;;19.90;95.20;;;;;;4941458;28;20406;-76
2023/09/17 00:27:16;;;;;;;16.30;13.27;;;19.80;95.10;;;;;;4943602;28;20039;-74
2023/09/17 00:29:42;;;;;;;15.90;14.27;;;19.80;95.10;;;;;;4943025;28;20065;-73
2023/09/17 00:32:08;;;;;;;15.90;14.27;;;19.80;95.10;;;;;;4944681;28;20035;-73
2023/09/17 00:34:33;;;;;;;20.00;16.25;;;19.70;95.20;;;;;;4941396;28;20055;-73
2023/09/17 00:37:03;;;;;;;19.08;17.05;;;19.70;95.30;;;;;;4947810;28;20047;-74
2023/09/17 00:39:28;;;;;;;17.42;15.55;;;19.70;95.40;;;;;;4944925;28;20048;-74
2023/09/17 00:41:54;;;;;;;18.13;16.23;;;19.70;95.30;;;;;;4959658;28;20358;-75
2023/09/17 00:44:20;;;;;;;20.20;17.67;;;19.70;95.30;;;;;;4964033;28;20043;-75
2023/09/17 00:46:47;;;;;;;20.35;18.25;;;19.80;95.40;;;;;;4964473;28;20030;-75
2023/09/17 00:49:14;;;;;;;19.25;17.25;;;19.70;95.50;;;;;;4961944;28;20142;-75
2023/09/17 00:51:43;;;;;;;18.65;16.75;;;19.70;95.50;;;;;;4975353;28;20078;-74
2023/09/17 00:54:10;;;;;;;19.83;17.63;;;19.80;95.50;;;;;;4958824;28;20127;-73
2023/09/17 00:56:37;;;;;;;19.50;17.50;;;19.70;95.50;;;;;;4969079;28;20158;-74
2023/09/17 00:59:05;;;;;;;19.42;17.42;;;19.70;95.60;;;;;;4950718;28;20145;-75
2023/09/17 01:01:30;;;;;;;20.63;18.50;;;19.70;95.60;;;;;;4965450;28;20027;-73
2023/09/17 01:03:56;;;;;;;18.63;16.73;;;19.70;95.60;;;;;;4959364;28;20062;-73
2023/09/17 01:06:22;;;;;;;21.75;19.55;;;19.60;95.70;;;;;;4966783;28;20045;-73
2023/09/17 01:08:48;;;;;;;18.95;17.02;;;19.60;95.70;;;;;;4959925;28;20034;-74
2023/09/17 01:11:14;;;;;;;23.23;20.92;;;19.60;95.70;;;;;;4963075;28;20280;-75
2023/09/17 01:13:42;;;;;;;24.25;21.83;;;19.60;95.80;;;;;;4961320;28;20062;-73
2023/09/17 01:16:09;;;;;;;22.83;20.42;;;19.60;95.80;;;;;;4954064;28;20493;-73
2023/09/17 01:18:35;;;;;;;23.05;20.55;;;19.60;95.80;;;;;;4964914;28;20411;-75
2023/09/17 01:21:31;;;;;;;24.23;21.73;;;19.60;95.90;;;;;;4960053;28;20045;-74
2023/09/17 01:24:07;;;;;;;26.17;23.48;;;19.60;95.90;;;;;;4944342;28;20039;-73
2023/09/17 01:26:36;;;;;;;27.58;24.67;;;19.60;95.90;;;;;;4947521;28;20085;-77
2023/09/17 01:29:04;;;;;;;29.23;26.13;;;19.60;95.80;;;;;;4953822;28;20137;-75
2023/09/17 01:31:30;;;;;;;27.70;24.73;;;19.50;95.90;;;;;;4960286;28;20069;-73
2023/09/17 01:33:56;;;;;;;30.23;27.08;;;19.50;96.00;;;;;;4955062;28;20129;-74
2023/09/17 01:36:30;;;;;;;30.77;27.70;;;19.50;95.90;;;;;;4968437;28;20388;-74
2023/09/17 01:39:04;;;;;;;28.58;25.70;;;19.50;96.00;;;;;;4965512;28;20053;-75
2023/09/17 01:41:33;;;;;;;30.65;27.50;;;19.50;96.10;;;;;;4960864;28;20081;-73
2023/09/17 01:44:03;;;;;;;30.80;27.50;;;19.50;96.10;;;;;;5006552;28;20141;-74
2023/09/17 01:46:30;;;;;;;31.58;28.23;;;19.50;96.00;;;;;;5043687;28;20021;-74
2023/09/17 01:48:56;;;;;;;30.88;27.60;;;19.50;96.10;;;;;;4945489;28;20520;-73
2023/09/17 01:51:22;;;;;;;29.85;26.75;;;19.50;96.00;;;;;;4939458;28;20030;-72
2023/09/17 01:53:48;;;;;;;30.35;27.17;;;19.50;96.10;;;;;;4940978;28;20497;-74
2023/09/17 01:56:14;;;;;;;30.75;27.55;;;19.50;96.10;;;;;;4941453;28;20142;-72
2023/09/17 01:58:40;;;;;;;30.60;27.30;;;19.40;96.10;;;;;;4945579;28;20370;-74
2023/09/17 02:01:05;;;;;;;31.92;28.58;;;19.40;96.20;;;;;;4945331;28;20038;-74
2023/09/17 02:03:31;;;;;;;33.67;30.08;;;19.40;96.10;;;;;;4965722;28;20099;-73
2023/09/17 02:05:58;;;;;;;35.92;30.98;;;19.40;96.20;;;;;;4962154;28;20035;-78
2023/09/17 02:08:24;;;;;;;35.50;31.27;;;19.40;96.20;;;;;;4963135;28;20074;-74
2023/09/17 02:10:49;;;;;;;34.10;30.58;;;19.40;96.20;;;;;;4956147;28;20374;-75
2023/09/17 02:13:15;;;;;;;35.58;31.70;;;19.30;96.20;;;;;;4944846;28;20113;-74
2023/09/17 02:15:41;;;;;;;35.92;32.08;;;19.30;96.20;;;;;;4940327;28;20097;-73
2023/09/17 02:18:06;;;;;;;34.30;30.58;;;19.30;96.20;;;;;;4952602;28;20548;-75
2023/09/17 02:20:37;;;;;;;36.90;32.97;;;19.40;96.30;;;;;;4965741;28;20037;-74
2023/09/17 02:23:02;;;;;;;36.50;32.33;;;19.40;96.30;;;;;;4951315;28;20043;-74
2023/09/17 02:25:28;;;;;;;36.60;32.75;;;19.40;96.10;;;;;;4964437;28;20126;-75
2023/09/17 02:27:53;;;;;;;39.70;35.45;;;19.30;96.10;;;;;;4962320;28;20138;-73
2023/09/17 02:30:19;;;;;;;40.65;34.60;;;19.30;96.00;;;;;;4964802;28;20034;-73
2023/09/17 02:32:45;;;;;;;41.63;37.22;;;19.30;95.80;;;;;;4961192;28;20552;-75
2023/09/17 02:35:11;;;;;;;41.13;36.83;;;19.30;95.80;;;;;;4940794;28;20046;-72
2023/09/17 02:37:37;;;;;;;42.38;37.15;;;19.20;95.70;;;;;;4936337;28;20470;-73
2023/09/17 02:40:04;;;;;;;40.88;36.38;;;19.20;95.70;;;;;;4943546;28;20034;-76
2023/09/17 02:42:30;;;;;;;41.42;37.15;;;19.30;95.80;;;;;;4948167;28;20404;-73
2023/09/17 02:44:55;;;;;;;38.92;34.72;;;19.20;95.60;;;;;;5041769;28;20037;-74
2023/09/17 02:47:21;;;;;;;42.92;38.38;;;19.20;95.70;;;;;;5004745;28;20040;-73
2023/09/17 02:49:47;;;;;;;44.05;37.97;;;19.20;95.50;;;;;;4941560;28;20035;-73
2023/09/17 02:52:12;;;;;;;43.50;38.75;;;19.20;95.40;;;;;;4943646;28;20479;-75
2023/09/17 02:54:38;;;;;;;45.28;39.45;;;19.10;95.30;;;;;;4941276;28;20411;-76
2023/09/17 02:57:04;;;;;;;44.40;39.60;;;19.10;95.10;;;;;;4939197;28;20095;-77
2023/09/17 02:59:29;;;;;;;45.63;40.65;;;19.10;95.20;;;;;;4958835;28;20042;-75
2023/09/17 03:01:55;;;;;;;44.80;40.15;;;19.10;95.20;;;;;;4960381;28;20039;-75
2023/09/17 03:04:21;;;;;;;43.85;39.05;;;19.10;95.20;;;;;;4959557;28;20039;-74
2023/09/17 03:06:47;;;;;;;43.08;38.58;;;19.10;95.10;;;;;;4960884;28;20026;-73
2023/09/17 03:09:13;;;;;;;45.42;40.60;;;19.10;95.10;;;;;;4957695;28;20050;-73
2023/09/17 03:11:39;;;;;;;45.50;40.58;;;19.10;95.00;;;;;;4957609;28;20611;-75
2023/09/17 03:14:05;;;;;;;43.33;38.72;;;19.10;95.00;;;;;;4946928;28;20071;-72
2023/09/17 03:16:31;;;;;;;42.70;38.20;;;19.10;95.00;;;;;;4941972;28;20102;-74
2023/09/17 03:18:56;;;;;;;43.38;38.28;;;19.10;95.00;;;;;;4958535;28;20043;-73
2023/09/17 03:21:22;;;;;;;44.90;40.10;;;19.10;94.90;;;;;;4964469;28;20350;-74
2023/09/17 03:23:48;;;;;;;46.58;41.67;;;19.10;94.90;;;;;;4956969;28;20061;-74
2023/09/17 03:26:13;;;;;;;43.92;38.67;;;19.10;94.90;;;;;;4957488;28;20023;-74
2023/09/17 03:28:39;;;;;;;45.55;40.58;;;19.10;94.90;;;;;;4963760;28;20535;-74
2023/09/17 03:31:05;;;;;;;43.90;39.22;;;19.10;94.90;;;;;;4961147;28;20030;-74
2023/09/17 03:33:30;;;;;;;45.97;41.03;;;19.10;94.90;;;;;;4949423;28;20120;-74
2023/09/17 03:35:57;;;;;;;44.58;39.95;;;19.10;94.80;;;;;;4940377;28;20435;-73
2023/09/17 03:38:23;;;;;;;45.72;40.78;;;19.10;94.90;;;;;;4950778;28;20119;-74
2023/09/17 03:40:49;;;;;;;45.72;40.92;;;19.10;94.90;;;;;;4937907;28;20126;-73
2023/09/17 03:43:14;;;;;;;44.40;39.67;;;19.10;95.00;;;;;;4936700;28;20537;-74
2023/09/17 03:45:43;;;;;;;43.63;38.92;;;19.10;94.90;;;;;;4950696;28;20039;-74
2023/09/17 03:48:09;;;;;;;47.05;41.97;;;19.10;95.00;;;;;;4942895;28;20047;-74
2023/09/17 03:50:39;;;;;;;48.33;43.10;;;19.20;94.70;;;;;;4939582;28;20084;-74
2023/09/17 03:53:06;;;;;;;45.78;40.00;;;19.10;94.70;;;;;;4946398;28;20082;-74
2023/09/17 03:55:33;;;;;;;44.42;39.72;;;19.10;94.80;;;;;;4940174;28;20038;-74
2023/09/17 03:58:00;;;;;;;49.55;43.63;;;19.10;94.70;;;;;;4945015;28;20123;-73
2023/09/17 04:00:26;;;;;;;47.50;42.53;;;19.10;94.70;;;;;;4945494;28;20031;-72
2023/09/17 04:02:52;;;;;;;50.45;42.38;;;19.10;94.70;;;;;;4964923;28;20371;-74
2023/09/17 04:05:21;;;;;;;46.55;41.65;;;19.10;94.90;;;;;;5042749;28;20024;-76
2023/09/17 04:07:47;;;;;;;49.33;43.60;;;19.10;94.90;;;;;;4992577;28;20040;-75
2023/09/17 04:10:14;;;;;;;51.80;46.30;;;19.10;95.00;;;;;;4941105;28;20049;-74
2023/09/17 04:12:41;;;;;;;51.85;46.13;;;19.10;95.00;;;;;;4982174;28;20559;-75
2023/09/17 04:15:12;;;;;;;47.60;42.42;;;19.00;95.00;;;;;;4941572;28;20050;-74
2023/09/17 04:17:37;;;;;;;46.42;41.53;;;19.10;95.10;;;;;;4941783;28;20359;-74
2023/09/17 04:20:09;;;;;;;48.00;43.05;;;19.10;95.10;;;;;;4954247;28;20253;-74
2023/09/17 04:22:35;;;;;;;49.70;44.45;;;19.10;95.00;;;;;;4951231;28;20473;-75
2023/09/17 04:25:00;;;;;;;48.55;42.30;;;19.00;94.90;;;;;;4943343;28;20078;-74
2023/09/17 04:27:26;;;;;;;50.53;45.05;;;19.10;94.90;;;;;;4943193;28;20043;-74
2023/09/17 04:29:52;;;;;;;47.22;42.15;;;19.00;94.90;;;;;;5037952;28;20749;-74
2023/09/17 04:32:18;;;;;;;47.10;42.28;;;19.00;95.00;;;;;;5007904;28;20362;-74
2023/09/17 04:34:43;;;;;;;50.83;44.50;;;19.10;95.10;;;;;;4940481;28;20975;-76
2023/09/17 04:37:10;;;;;;;46.67;41.88;;;19.10;95.00;;;;;;4940472;28;20050;-74
2023/09/17 04:39:36;;;;;;;50.00;44.55;;;19.10;95.00;;;;;;4940714;28;20516;-74
2023/09/17 04:42:02;;;;;;;49.33;43.95;;;19.10;95.00;;;;;;4942366;28;20039;-75
2023/09/17 04:44:28;;;;;;;48.00;42.92;;;19.10;95.00;;;;;;4939962;28;20119;-74
2023/09/17 04:46:54;;;;;;;48.38;43.17;;;19.10;95.00;;;;;;4940349;28;20053;-74
2023/09/17 04:49:20;;;;;;;50.65;45.40;;;19.10;94.90;;;;;;4940443;28;20058;-74
2023/09/17 04:51:45;;;;;;;51.78;46.47;;;19.10;94.80;;;;;;4946477;28;20019;-73
2023/09/17 04:54:11;;;;;;;51.38;46.05;;;19.10;94.80;;;;;;4945259;28;20393;-75
2023/09/17 04:56:37;;;;;;;48.50;43.30;;;19.10;94.70;;;;;;4946263;28;20070;-73
2023/09/17 04:59:04;;;;;;;48.38;43.28;;;19.10;94.80;;;;;;4942068;28;20020;-74
2023/09/17 05:01:29;;;;;;;50.22;44.90;;;19.10;94.70;;;;;;4946466;28;20027;-75
2023/09/17 05:03:55;;;;;;;49.72;44.53;;;19.10;94.70;;;;;;4936244;28;20431;-74
2023/09/17 05:06:21;;;;;;;51.67;46.40;;;19.10;94.70;;;;;;4941662;28;20031;-75
2023/09/17 05:08:47;;;;;;;52.45;46.78;;;19.10;94.80;;;;;;5002285;28;21040;-73
2023/09/17 05:11:12;;;;;;;55.25;49.35;;;19.10;94.90;;;;;;5043878;28;20047;-74
2023/09/17 05:13:38;;;;;;;53.50;47.97;;;19.10;94.90;;;;;;4990866;28;20093;-75
2023/09/17 05:16:04;;;;;;;56.13;50.22;;;19.00;94.90;;;;;;4939421;28;20030;-76
2023/09/17 05:18:30;;;;;;;52.78;47.28;;;19.00;95.00;;;;;;4940321;28;20152;-74
2023/09/17 05:20:56;;;;;;;55.67;49.55;;;19.00;95.00;;;;;;4953997;28;20023;-74
2023/09/17 05:23:22;;;;;;;55.97;50.08;;;19.00;95.10;;;;;;4956124;28;20046;-74
2023/09/17 05:25:48;;;;;;;55.42;49.55;;;19.00;95.10;;;;;;4961895;28;20551;-75
2023/09/17 05:28:13;;;;;;;60.67;54.05;;;19.00;95.20;;;;;;4995463;28;20047;-75
2023/09/17 05:30:39;;;;;;;59.58;53.28;;;19.00;95.20;;;;;;4978010;28;20031;-73
2023/09/17 05:33:05;;;;;;;56.65;50.38;;;18.90;95.20;;;;;;4963248;28;20433;-74
2023/09/17 05:35:32;;;;;;;60.55;53.00;;;18.90;95.20;;;;;;4959285;28;20046;-73
2023/09/17 05:37:57;;;;;;;59.97;53.70;;;19.00;95.30;;;;;;4956808;28;20035;-74
2023/09/17 05:40:23;;;;;;;59.47;53.22;;;19.00;95.30;;;;;;4972707;28;20049;-74
2023/09/17 05:42:49;;;;;;;58.35;52.22;;;18.90;95.30;;;;;;4959686;28;20142;-75
2023/09/17 05:45:15;;;;;;;59.75;53.33;;;18.90;95.30;;;;;;4960525;28;20058;-74
2023/09/17 05:47:41;;;;;;;60.20;53.30;;;18.90;95.40;;;;;;4955750;28;20059;-74
2023/09/17 05:50:09;;;;;;;61.05;53.78;;;18.90;95.40;;;;;;4953625;28;20031;-74
2023/09/17 05:52:34;;;;;;;62.15;53.72;;;18.90;95.50;;;;;;4967420;28;20044;-75
2023/09/17 05:55:03;;;;;;;59.05;52.80;;;18.90;95.50;;;;;;4964606;28;20470;-73
2023/09/17 05:57:29;;;;;;;61.70;55.13;;;18.90;95.60;;;;;;4955843;28;20050;-74
2023/09/17 05:59:55;;;;;;;63.28;56.25;;;18.90;95.60;;;;;;4960206;28;20022;-75
2023/09/17 06:02:20;;;;;;;62.53;55.05;;;18.80;95.60;;;;;;4958847;28;20105;-73
2023/09/17 06:04:51;;;;;;;62.35;55.58;;;18.90;95.60;;;;;;4960434;28;20137;-74
2023/09/17 06:07:16;;;;;;;60.50;53.92;;;18.90;95.70;;;;;;4959006;28;20034;-73
2023/09/17 06:09:42;;;;;;;62.65;55.63;;;18.90;95.70;;;;;;4959531;28;20251;-74
2023/09/17 06:12:08;;;;;;;61.78;55.20;;;19.00;95.70;;;;;;4957505;28;20485;-73
2023/09/17 06:14:34;;;;;;;61.92;54.83;;;19.00;95.60;;;;;;4960590;28;20489;-73
2023/09/17 06:16:59;;;;;;;61.28;54.85;;;19.00;95.50;;;;;;4960836;28;20073;-73
2023/09/17 06:19:29;;;;;;;63.85;55.42;;;18.90;95.50;;;;;;4956410;28;20118;-75
2023/09/17 06:21:54;;;;;;;66.47;57.47;;;19.00;95.50;;;;;;4958765;28;20092;-74
2023/09/17 06:24:20;;;;;;;65.45;58.00;;;19.00;95.40;;;;;;4947588;28;20039;-74
2023/09/17 06:26:46;;;;;;;62.97;56.10;;;18.90;95.50;;;;;;4942461;28;20489;-77
2023/09/17 06:29:12;;;;;;;67.20;57.40;;;18.90;95.50;;;;;;4953653;28;20055;-75
2023/09/17 06:31:37;;;;;;;59.65;53.15;;;19.00;95.60;;;;;;4956342;28;20038;-74
2023/09/17 06:34:03;;;;;;;61.38;54.80;;;19.00;95.70;;;;;;4953656;28;20496;-76
2023/09/17 06:36:29;;;;;;;65.35;57.35;;;19.00;95.60;;;;;;4959655;28;20580;-73
2023/09/17 06:38:55;;;;;;;62.30;55.58;;;19.00;95.30;;;;;;4950214;28;20069;-73
2023/09/17 06:41:21;;;;;;;65.43;57.90;;;19.00;95.40;;;;;;4945401;28;20293;-74
2023/09/17 06:43:47;;;;;;;66.82;59.50;;;19.00;95.50;;;;;;4962719;28;20043;-74
2023/09/17 06:46:13;;;;;;;64.60;57.78;;;19.00;95.50;;;;;;4960295;28;20106;-73
2023/09/17 06:48:38;;;;;;;66.95;59.05;;;19.10;95.60;;;;;;4958201;28;20034;-74
2023/09/17 06:51:04;;;;;;;66.25;59.22;;;19.00;95.40;;;;;;4957660;28;20027;-74
2023/09/17 06:53:30;;;;;;;68.05;60.47;;;19.00;95.40;;;;;;4959354;28;20042;-73
2023/09/17 06:55:58;;;;;;;71.22;62.67;;;19.00;95.40;;;;;;4959763;28;20333;-73
2023/09/17 06:58:24;;;;;;;80.57;63.97;;;19.00;95.30;;;;;;4953890;28;20075;-74
2023/09/17 07:00:49;;;;;;;78.40;65.38;;;18.90;95.30;;;;;;4971982;28;20462;-73
2023/09/17 07:03:15;;;;;;;74.35;64.38;;;18.90;95.40;;;;;;4954047;28;20508;-73
2023/09/17 07:05:41;;;;;;;76.53;64.63;;;19.00;95.50;;;;;;4960732;28;20079;-73
2023/09/17 07:08:07;;;;;;;77.68;65.70;;;19.00;95.40;;;;;;4954145;28;20066;-73
2023/09/17 07:10:33;;;;;;;80.97;66.85;;;19.00;95.30;;;;;;4937633;28;20181;-72
2023/09/17 07:12:59;;;;;;;88.07;70.03;;;19.00;95.30;;;;;;4938050;28;20113;-73
2023/09/17 07:15:25;;;;;;;86.53;70.20;;;18.90;95.30;;;;;;4937483;28;20043;-72
2023/09/17 07:17:52;;;;;;;84.65;69.88;;;18.80;95.40;;;;;;4941079;28;20515;-72
2023/09/17 07:20:19;;;;;;;80.07;69.60;;;18.80;95.60;;;;;;4959658;28;20038;-73
2023/09/17 07:22:46;;;;;;;85.75;69.18;;;18.90;95.80;;;;;;4955410;28;20076;-73
2023/09/17 07:25:12;;;;;;;82.03;64.25;;;19.00;95.90;;;;;;4960022;28;20023;-72
2023/09/17 07:27:38;;;;;;;86.35;65.47;;;19.10;96.00;;;;;;4958599;28;20053;-73
2023/09/17 07:30:05;;;;;;;82.22;68.25;;;19.10;95.90;;;;;;4941696;28;20118;-73
2023/09/17 07:32:31;;;;;;;86.10;69.15;;;19.20;95.80;;;;;;4942079;28;20057;-74
2023/09/17 07:34:57;;;;;;;80.07;65.15;;;19.20;95.70;;;;;;4939382;28;20339;-72
2023/09/17 07:37:23;;;;;;;75.63;64.32;;;19.30;95.60;;;;;;4948681;28;20058;-74
2023/09/17 07:39:59;;;;;;;76.10;61.95;;;19.30;95.40;;;;;;4963324;28;20030;-75
2023/09/17 07:42:24;;;;;;;83.60;64.57;;;19.30;95.10;;;;;;4956818;28;20031;-73
2023/09/17 07:44:50;;;;;;;77.60;62.50;;;19.40;94.90;;;;;;4949023;28;20027;-72
2023/09/17 07:47:17;;;;;;;75.40;60.03;;;19.40;94.60;;;;;;4942195;28;20038;-74
2023/09/17 07:49:43;;;;;;;68.93;57.35;;;19.30;94.40;;;;;;4958490;28;20039;-74
2023/09/17 07:52:08;;;;;;;70.45;55.30;;;19.30;94.20;;;;;;4957595;28;20040;-72
2023/09/17 07:54:41;;;;;;;75.85;61.78;;;19.30;94.30;;;;;;4936728;28;20093;-77
2023/09/17 07:57:12;;;;;;;72.78;57.65;;;19.20;93.80;;;;;;4938669;28;20486;-74
2023/09/17 07:59:38;;;;;;;79.03;60.88;;;19.10;93.90;;;;;;5015372;28;20046;-73
2023/09/17 08:02:04;;;;;;;75.32;58.78;;;19.20;94.10;;;;;;4938478;28;20039;-74
2023/09/17 08:04:30;;;;;;;74.25;61.35;;;19.20;94.20;;;;;;4937040;28;20047;-74
2023/09/17 08:06:57;;;;;;;78.65;61.13;;;19.20;94.30;;;;;;4939129;28;20491;-73
2023/09/17 08:09:23;;;;;;;86.10;63.72;;;19.30;94.30;;;;;;4954491;28;20520;-73
2023/09/17 08:11:49;;;;;;;81.45;64.75;;;19.30;94.20;;;;;;4957145;28;20446;-75
2023/09/17 08:14:14;;;;;;;72.68;58.13;;;19.30;94.00;;;;;;4935048;28;20059;-73
2023/09/17 08:16:40;;;;;;;80.22;64.05;;;19.30;94.20;;;;;;4939588;28;20196;-74
2023/09/17 08:19:06;;;;;;;73.07;58.63;;;19.20;94.00;;;;;;4947472;28;20035;-74
2023/09/17 08:21:32;;;;;;;72.88;58.38;;;19.30;94.40;;;;;;4939505;28;20034;-72
2023/09/17 08:23:59;;;;;;;80.10;61.92;;;19.40;94.40;;;;;;4954541;28;20031;-74
2023/09/17 08:26:28;;;;;;;78.05;60.72;;;19.40;94.10;;;;;;4956399;28;20038;-73
2023/09/17 08:28:57;;;;;;;79.60;60.92;;;19.50;94.30;;;;;;4957584;28;20049;-75
2023/09/17 08:31:25;;;;;;;83.15;62.70;;;19.50;93.90;;;;;;4956700;28;20148;-74
2023/09/17 08:33:52;;;;;;;84.53;64.32;;;19.40;93.60;;;;;;4957236;28;20034;-75
2023/09/17 08:36:21;;;;;;;78.72;60.33;;;19.30;94.00;;;;;;4960844;28;20493;-74
2023/09/17 08:38:49;;;;;;;76.10;57.67;;;19.30;94.30;;;;;;4943891;28;20398;-75
2023/09/17 08:41:18;;;;;;;77.13;63.10;;;19.50;94.50;;;;;;4938226;28;20027;-73
2023/09/17 08:43:45;;;;;;;77.50;62.92;;;19.50;94.40;;;;;;4941409;28;20130;-73
2023/09/17 08:46:11;;;;;;;82.65;64.05;;;19.60;94.20;;;;;;4941312;28;20027;-75
2023/09/17 08:48:37;;;;;;;78.88;62.63;;;19.40;93.90;;;;;;4941460;28;20521;-72
2023/09/17 08:51:04;;;;;;;75.18;59.22;;;19.30;94.30;;;;;;4940290;28;20057;-73
2023/09/17 08:53:36;;;;;;;84.32;66.07;;;19.50;94.70;;;;;;4939661;28;20406;-74
2023/09/17 08:56:05;;;;;;;83.00;62.92;;;19.60;94.30;;;;;;4949334;28;20057;-73
2023/09/17 08:58:40;;;;;;;83.25;62.65;;;19.60;94.50;;;;;;4959889;28;20468;-74
2023/09/17 09:01:08;;;;;;;79.00;59.85;;;19.80;93.80;;;;;;4944399;28;20045;-75
2023/09/17 09:03:35;;;;;;;80.30;60.95;;;19.60;93.30;;;;;;4950885;28;20180;-73
2023/09/17 09:06:03;;;;;;;70.18;58.35;;;19.70;93.50;;;;;;4959248;28;20048;-74
2023/09/17 09:08:31;;;;;;;74.20;57.63;;;19.80;93.70;;;;;;4959175;28;20032;-76
2023/09/17 09:10:57;;;;;;;72.35;55.63;;;19.80;93.30;;;;;;4961120;28;20170;-76
2023/09/17 09:13:23;;;;;;;77.32;61.63;;;19.90;93.50;;;;;;4960526;28;20096;-74
2023/09/17 09:15:49;;;;;;;64.68;51.30;;;19.90;92.70;;;;;;4959085;28;20132;-74
2023/09/17 09:18:15;;;;;;;68.15;54.65;;;20.00;93.20;;;;;;4966831;28;20047;-76
2023/09/17 09:20:42;;;;;;;67.45;54.45;;;20.10;92.90;;;;;;4962462;28;20034;-74
2023/09/17 09:23:07;;;;;;;68.00;53.67;;;20.20;92.70;;;;;;4953662;28;20532;-76
2023/09/17 09:25:34;;;;;;;58.50;48.67;;;20.30;92.10;;;;;;4952725;28;20437;-77
2023/09/17 09:28:00;;;;;;;62.10;51.00;;;20.30;92.10;;;;;;4946062;28;20085;-74
2023/09/17 09:30:28;;;;;;;61.95;52.67;;;20.60;92.20;;;;;;4959120;28;20747;-74
2023/09/17 09:32:54;;;;;;;64.60;52.97;;;20.70;91.30;;;;;;5052903;28;20031;-75
2023/09/17 09:35:21;;;;;;;60.78;50.38;;;20.80;91.00;;;;;;4945909;28;20063;-75
2023/09/17 09:37:48;;;;;;;61.13;50.05;;;20.80;90.30;;;;;;4943890;28;20031;-73
2023/09/17 09:40:14;;;;;;;50.30;43.72;;;20.90;90.30;;;;;;4961068;28;20027;-76
2023/09/17 09:42:42;;;;;;;54.15;46.05;;;21.10;90.60;;;;;;4959329;28;20173;-75
2023/09/17 09:45:16;;;;;;;50.83;42.90;;;21.20;90.00;;;;;;4964195;28;20022;-75
2023/09/17 09:47:51;;;;;;;56.97;45.38;;;21.20;90.00;;;;;;4951984;28;20071;-76
2023/09/17 09:50:35;;;;;;;56.13;46.53;;;21.40;89.60;;;;;;4960333;28;20493;-78
2023/09/17 09:53:01;;;;;;;52.20;43.90;;;21.60;88.90;;;;;;4953399;28;20051;-74
2023/09/17 09:55:28;;;;;;;51.83;44.80;;;21.60;88.20;;;;;;4962400;28;20066;-74
2023/09/17 09:57:55;;;;;;;51.90;44.42;;;21.60;88.20;;;;;;4954370;28;20408;-75
2023/09/17 10:00:26;;;;;;;48.17;42.58;;;21.70;87.80;;;;;;4965602;28;20026;-75
2023/09/17 10:02:53;;;;;;;50.15;43.65;;;21.70;87.90;;;;;;4955273;28;20062;-78
2023/09/17 10:05:40;;;;;;;45.72;38.97;;;21.70;87.50;;;;;;5036857;28;20027;-76
2023/09/17 10:08:10;;;;;;;49.97;43.95;;;21.90;88.10;;;;;;4949004;28;20051;-76
2023/09/17 10:10:37;;;;;;;49.38;43.72;;;21.80;87.60;;;;;;4957545;28;20405;-74
2023/09/17 10:13:06;;;;;;;48.35;40.42;;;21.90;87.30;;;;;;4970448;28;20042;-74
2023/09/17 10:15:36;;;;;;;44.97;38.72;;;21.80;88.20;;;;;;4958745;28;20847;-77
2023/09/17 10:18:04;;;;;;;42.03;36.42;;;22.10;88.30;;;;;;4954666;28;20046;-77
2023/09/17 10:20:30;;;;;;;42.22;35.55;;;22.50;87.40;;;;;;4958307;28;20094;-76
2023/09/17 10:22:58;;;;;;;36.15;31.08;;;22.80;85.90;;;;;;4957487;28;20054;-76
2023/09/17 10:25:24;;;;;;;38.60;34.25;;;22.90;85.10;;;;;;4958351;28;20035;-74
2023/09/17 10:27:52;;;;;;;43.05;36.38;;;23.00;84.20;;;;;;4950113;28;20051;-74
2023/09/17 10:30:18;;;;;;;41.15;36.33;;;23.00;83.50;;;;;;4952939;28;20053;-77
2023/09/17 10:32:47;;;;;;;38.75;34.50;;;22.90;83.40;;;;;;4953784;28;20405;-76
2023/09/17 10:35:14;;;;;;;38.90;33.63;;;22.60;84.30;;;;;;4955602;28;20035;-74
2023/09/17 10:37:41;;;;;;;36.88;32.58;;;22.70;85.10;;;;;;4952140;28;20039;-77
2023/09/17 10:40:09;;;;;;;34.00;30.25;;;22.80;84.70;;;;;;4964025;28;20031;-74
2023/09/17 10:42:38;;;;;;;35.33;30.40;;;23.00;84.70;;;;;;4955032;28;20035;-75
2023/09/17 10:45:13;;;;;;;37.15;31.52;;;23.20;84.30;;;;;;4962851;28;20187;-78
2023/09/17 10:47:40;;;;;;;39.25;33.85;;;23.40;83.60;;;;;;4970014;28;20073;-77
2023/09/17 10:50:08;;;;;;;36.10;31.98;;;23.50;81.00;;;;;;4959808;28;20388;-76
2023/09/17 10:52:36;;;;;;;33.20;29.42;;;23.30;81.20;;;;;;4960203;28;20034;-76
2023/09/17 10:55:06;;;;;;;35.95;29.45;;;23.10;82.40;;;;;;4949944;28;20031;-76
2023/09/17 10:57:39;;;;;;;36.30;31.35;;;23.10;82.30;;;;;;4940303;28;20086;-75
2023/09/17 11:00:13;;;;;;;35.15;31.00;;;23.00;83.00;;;;;;4947089;28;20508;-75
2023/09/17 11:02:41;;;;;;;;;;;22.90;83.90;;;;;;4983192;28;20201;-75
2023/09/17 11:05:09;;;;;;;30.02;25.88;;;22.90;82.80;;;;;;5050027;28;19913;-75
2023/09/17 11:07:35;;;;;;;33.03;29.15;;;22.90;83.40;;;;;;4998478;28;20031;-77
2023/09/17 11:10:04;;;;;;;34.28;30.60;;;23.00;82.70;;;;;;4939171;28;20441;-74
2023/09/17 11:12:31;;;;;;;34.47;30.75;;;23.00;82.20;;;;;;4940513;28;20486;-76
2023/09/17 11:14:57;;;;;;;37.47;31.95;;;22.70;83.70;;;;;;4958784;28;20038;-73
2023/09/17 11:17:31;;;;;;;35.20;30.35;;;22.60;84.30;;;;;;4950074;28;20051;-76
2023/09/17 11:19:57;;;;;;;35.97;30.00;;;22.60;84.20;;;;;;4971272;28;20072;-76
2023/09/17 11:22:24;;;;;;;32.30;28.85;;;22.60;85.30;;;;;;4951744;28;20111;-76
2023/09/17 11:24:50;;;;;;;31.92;26.65;;;22.80;84.80;;;;;;4942852;28;20288;-76
2023/09/17 11:27:20;;;;;;;30.55;26.88;;;23.00;83.70;;;;;;4950867;28;20405;-76
2023/09/17 11:29:46;;;;;;;31.85;26.25;;;23.10;82.50;;;;;;4940758;28;20055;-73
2023/09/17 11:32:19;;;;;;;32.50;28.77;;;23.30;82.80;;;;;;4945096;28;20484;-74
2023/09/17 11:34:45;;;;;;;38.17;32.00;;;23.50;81.80;;;;;;5040010;28;20049;-74
2023/09/17 11:37:14;;;;;;;31.13;26.95;;;23.40;81.40;;;;;;5015773;28;20390;-74
2023/09/17 11:39:49;;;;;;;30.42;26.90;;;23.60;82.40;;;;;;4937452;28;20469;-75
2023/09/17 11:42:15;;;;;;;31.25;27.83;;;24.00;81.10;;;;;;4939994;28;20050;-76
2023/09/17 11:44:45;;;;;;;29.63;26.48;;;24.30;79.30;;;;;;4936709;28;20398;-74
2023/09/17 11:47:12;;;;;;;29.75;26.35;;;24.20;79.50;;;;;;4938963;28;20035;-75
2023/09/17 11:49:40;;;;;;;31.75;28.30;;;24.40;79.40;;;;;;4938782;28;20039;-78
2023/09/17 11:52:10;;;;;;;29.65;26.10;;;24.40;79.20;;;;;;4951344;28;20123;-74
2023/09/17 11:55:06;;;;;;;27.60;22.88;;;24.40;78.30;;;;;;4958602;28;20069;-74
2023/09/17 11:57:33;;;;;;;28.17;25.27;;;24.60;78.60;;;;;;4951535;28;20034;-76
2023/09/17 11:59:59;;;;;;;26.67;23.88;;;24.70;77.90;;;;;;4943498;28;20039;-75
2023/09/17 12:02:27;;;;;;;25.45;22.85;;;24.90;78.20;;;;;;4943620;28;20039;-74
2023/09/17 12:04:54;;;;;;;26.10;23.30;;;24.90;77.60;;;;;;4960640;28;20039;-76
2023/09/17 12:07:21;;;;;;;23.00;20.50;;;25.00;77.10;;;;;;4962520;28;20031;-76
2023/09/17 12:10:00;;;;;;;23.73;20.88;;;24.90;77.30;;;;;;4967008;28;20385;-77
2023/09/17 12:12:27;;;;;;;21.67;19.38;;;25.00;78.10;;;;;;4954783;28;20030;-75
2023/09/17 12:14:53;;;;;;;25.25;22.65;;;25.20;77.00;;;;;;4966817;28;20060;-77
2023/09/17 12:17:19;;;;;;;27.15;23.30;;;25.10;77.10;;;;;;4958797;28;20055;-77
2023/09/17 12:19:47;;;;;;;25.92;22.98;;;25.00;76.50;;;;;;4939376;28;20473;-75
2023/09/17 12:22:13;;;;;;;25.80;23.13;;;25.10;77.80;;;;;;4950813;28;20039;-76
2023/09/17 12:24:44;;;;;;;23.83;21.25;;;25.10;77.30;;;;;;4944819;28;20208;-75
2023/09/17 12:27:25;;;;;;;25.85;23.23;;;25.10;77.50;;;;;;4946534;28;20026;-74